sensor_id;sensor_type;location;lat;lon;timestamp;P1;durP1;ratioP1;P2;durP2;ratioP2
25758;SDS011;13604;52.496;13.456;2023-01-26T00:00:20;45.57;;;16.53;;
25758;SDS011;13604;52.496;13.456;2023-01-26T00:02:45;45.00;;;16.10;;
25758;SDS011;13604;52.496;13.456;2023-01-26T00:05:11;45.27;;;16.20;;
25758;SDS011;13604;52.496;13.456;2023-01-26T00:07:36;44.37;;;17.07;;
25758;SDS011;13604;52.496;13.456;2023-01-26T00:10:02;47.10;;;15.98;;
25758;SDS011;13604;52.496;13.456;2023-01-26T00:12:27;49.05;;;16.50;;
25758;SDS011;13604;52.496;13.456;2023-01-26T00:14:52;46.50;;;16.23;;
25758;SDS011;13604;52.496;13.456;2023-01-26T00:17:18;51.40;;;16.60;;
25758;SDS011;13604;52.496;13.456;2023-01-26T00:19:50;44.72;;;16.00;;
25758;SDS011;13604;52.496;13.456;2023-01-26T00:22:15;48.97;;;17.13;;
25758;SDS011;13604;52.496;13.456;2023-01-26T00:24:40;52.10;;;16.70;;
25758;SDS011;13604;52.496;13.456;2023-01-26T00:27:05;42.27;;;14.73;;
25758;SDS011;13604;52.496;13.456;2023-01-26T00:29:30;43.43;;;15.53;;
25758;SDS011;13604;52.496;13.456;2023-01-26T00:31:56;41.33;;;14.90;;
25758;SDS011;13604;52.496;13.456;2023-01-26T00:34:21;47.87;;;16.13;;
25758;SDS011;13604;52.496;13.456;2023-01-26T00:36:46;46.90;;;16.00;;
25758;SDS011;13604;52.496;13.456;2023-01-26T00:39:11;45.40;;;15.10;;
25758;SDS011;13604;52.496;13.456;2023-01-26T00:41:36;44.97;;;16.50;;
25758;SDS011;13604;52.496;13.456;2023-01-26T00:44:20;48.67;;;17.27;;
25758;SDS011;13604;52.496;13.456;2023-01-26T00:46:45;51.20;;;17.33;;
25758;SDS011;13604;52.496;13.456;2023-01-26T00:49:10;47.13;;;17.47;;
25758;SDS011;13604;52.496;13.456;2023-01-26T00:51:36;47.37;;;16.27;;
25758;SDS011;13604;52.496;13.456;2023-01-26T00:54:01;44.35;;;16.58;;
25758;SDS011;13604;52.496;13.456;2023-01-26T00:56:26;47.00;;;16.70;;
25758;SDS011;13604;52.496;13.456;2023-01-26T00:58:51;41.22;;;15.65;;
25758;SDS011;13604;52.496;13.456;2023-01-26T01:01:17;42.87;;;17.03;;
25758;SDS011;13604;52.496;13.456;2023-01-26T01:03:42;50.63;;;17.07;;
25758;SDS011;13604;52.496;13.456;2023-01-26T01:06:07;39.97;;;16.97;;
25758;SDS011;13604;52.496;13.456;2023-01-26T01:08:32;44.93;;;16.67;;
25758;SDS011;13604;52.496;13.456;2023-01-26T01:11:01;46.10;;;16.00;;
25758;SDS011;13604;52.496;13.456;2023-01-26T01:13:26;40.97;;;15.63;;
25758;SDS011;13604;52.496;13.456;2023-01-26T01:15:52;46.53;;;16.33;;
25758;SDS011;13604;52.496;13.456;2023-01-26T01:18:17;44.30;;;16.77;;
25758;SDS011;13604;52.496;13.456;2023-01-26T01:20:42;40.20;;;14.90;;
25758;SDS011;13604;52.496;13.456;2023-01-26T01:23:07;42.43;;;15.57;;
25758;SDS011;13604;52.496;13.456;2023-01-26T01:25:32;43.73;;;16.80;;
25758;SDS011;13604;52.496;13.456;2023-01-26T01:27:58;43.22;;;15.77;;
25758;SDS011;13604;52.496;13.456;2023-01-26T01:30:23;37.53;;;15.47;;
25758;SDS011;13604;52.496;13.456;2023-01-26T01:32:49;37.13;;;15.07;;
25758;SDS011;13604;52.496;13.456;2023-01-26T01:35:15;37.10;;;15.55;;
25758;SDS011;13604;52.496;13.456;2023-01-26T01:37:40;40.60;;;15.13;;
25758;SDS011;13604;52.496;13.456;2023-01-26T01:40:06;39.07;;;15.73;;
25758;SDS011;13604;52.496;13.456;2023-01-26T01:42:32;40.92;;;16.10;;
25758;SDS011;13604;52.496;13.456;2023-01-26T01:47:41;40.63;;;16.25;;
25758;SDS011;13604;52.496;13.456;2023-01-26T01:50:07;39.57;;;16.93;;
25758;SDS011;13604;52.496;13.456;2023-01-26T01:52:36;50.55;;;17.42;;
25758;SDS011;13604;52.496;13.456;2023-01-26T01:55:02;48.73;;;18.17;;
25758;SDS011;13604;52.496;13.456;2023-01-26T01:57:32;43.35;;;16.52;;
25758;SDS011;13604;52.496;13.456;2023-01-26T02:00:09;44.30;;;16.48;;
25758;SDS011;13604;52.496;13.456;2023-01-26T02:02:35;40.30;;;15.40;;
25758;SDS011;13604;52.496;13.456;2023-01-26T02:05:19;44.95;;;17.67;;
25758;SDS011;13604;52.496;13.456;2023-01-26T02:07:46;46.58;;;17.23;;
25758;SDS011;13604;52.496;13.456;2023-01-26T02:10:15;43.03;;;17.08;;
25758;SDS011;13604;52.496;13.456;2023-01-26T02:12:43;43.67;;;17.30;;
25758;SDS011;13604;52.496;13.456;2023-01-26T02:15:08;49.72;;;18.10;;
25758;SDS011;13604;52.496;13.456;2023-01-26T02:17:34;47.55;;;17.45;;
25758;SDS011;13604;52.496;13.456;2023-01-26T02:20:02;39.00;;;16.30;;
25758;SDS011;13604;52.496;13.456;2023-01-26T02:25:05;47.88;;;16.83;;
25758;SDS011;13604;52.496;13.456;2023-01-26T02:27:31;42.70;;;15.90;;
25758;SDS011;13604;52.496;13.456;2023-01-26T02:29:56;49.20;;;17.77;;
25758;SDS011;13604;52.496;13.456;2023-01-26T02:32:23;47.38;;;17.42;;
25758;SDS011;13604;52.496;13.456;2023-01-26T02:34:54;45.07;;;17.47;;
25758;SDS011;13604;52.496;13.456;2023-01-26T02:37:19;43.35;;;16.38;;
25758;SDS011;13604;52.496;13.456;2023-01-26T02:39:47;51.10;;;18.07;;
25758;SDS011;13604;52.496;13.456;2023-01-26T02:42:13;40.42;;;16.50;;
25758;SDS011;13604;52.496;13.456;2023-01-26T02:44:57;46.00;;;17.35;;
25758;SDS011;13604;52.496;13.456;2023-01-26T02:47:22;45.53;;;16.80;;
25758;SDS011;13604;52.496;13.456;2023-01-26T02:49:47;43.67;;;17.25;;
25758;SDS011;13604;52.496;13.456;2023-01-26T02:52:22;43.92;;;16.67;;
25758;SDS011;13604;52.496;13.456;2023-01-26T02:54:47;43.63;;;16.90;;
25758;SDS011;13604;52.496;13.456;2023-01-26T02:57:31;39.42;;;16.65;;
25758;SDS011;13604;52.496;13.456;2023-01-26T02:59:58;43.78;;;16.63;;
25758;SDS011;13604;52.496;13.456;2023-01-26T03:02:23;44.53;;;17.40;;
25758;SDS011;13604;52.496;13.456;2023-01-26T03:04:48;47.47;;;17.73;;
25758;SDS011;13604;52.496;13.456;2023-01-26T03:07:13;45.45;;;17.35;;
25758;SDS011;13604;52.496;13.456;2023-01-26T03:09:39;50.17;;;18.70;;
25758;SDS011;13604;52.496;13.456;2023-01-26T03:12:04;51.87;;;17.37;;
25758;SDS011;13604;52.496;13.456;2023-01-26T03:14:29;41.20;;;16.13;;
25758;SDS011;13604;52.496;13.456;2023-01-26T03:16:54;44.90;;;17.90;;
25758;SDS011;13604;52.496;13.456;2023-01-26T03:19:20;51.80;;;18.40;;
25758;SDS011;13604;52.496;13.456;2023-01-26T03:22:14;43.08;;;18.73;;
25758;SDS011;13604;52.496;13.456;2023-01-26T03:24:58;59.17;;;20.73;;
25758;SDS011;13604;52.496;13.456;2023-01-26T03:27:44;48.40;;;18.80;;
25758;SDS011;13604;52.496;13.456;2023-01-26T03:30:09;54.05;;;19.50;;
25758;SDS011;13604;52.496;13.456;2023-01-26T03:32:35;54.25;;;21.38;;
25758;SDS011;13604;52.496;13.456;2023-01-26T03:35:00;54.33;;;19.67;;
25758;SDS011;13604;52.496;13.456;2023-01-26T03:37:26;60.85;;;20.50;;
25758;SDS011;13604;52.496;13.456;2023-01-26T03:39:51;60.83;;;20.80;;
25758;SDS011;13604;52.496;13.456;2023-01-26T03:42:35;59.17;;;20.60;;
25758;SDS011;13604;52.496;13.456;2023-01-26T03:45:19;49.17;;;19.08;;
25758;SDS011;13604;52.496;13.456;2023-01-26T03:48:04;50.80;;;18.58;;
25758;SDS011;13604;52.496;13.456;2023-01-26T03:50:48;58.05;;;20.58;;
25758;SDS011;13604;52.496;13.456;2023-01-26T03:53:31;54.90;;;21.15;;
25758;SDS011;13604;52.496;13.456;2023-01-26T03:56:15;58.25;;;20.90;;
25758;SDS011;13604;52.496;13.456;2023-01-26T03:58:42;51.47;;;20.45;;
25758;SDS011;13604;52.496;13.456;2023-01-26T04:01:07;58.78;;;21.08;;
25758;SDS011;13604;52.496;13.456;2023-01-26T04:03:34;55.88;;;20.30;;
25758;SDS011;13604;52.496;13.456;2023-01-26T04:06:18;58.75;;;21.02;;
25758;SDS011;13604;52.496;13.456;2023-01-26T04:09:02;62.03;;;20.90;;
25758;SDS011;13604;52.496;13.456;2023-01-26T04:11:27;55.87;;;21.20;;
25758;SDS011;13604;52.496;13.456;2023-01-26T04:13:53;66.30;;;22.80;;
25758;SDS011;13604;52.496;13.456;2023-01-26T04:16:37;55.15;;;19.15;;
25758;SDS011;13604;52.496;13.456;2023-01-26T04:19:21;51.45;;;18.90;;
25758;SDS011;13604;52.496;13.456;2023-01-26T04:22:04;58.28;;;20.15;;
25758;SDS011;13604;52.496;13.456;2023-01-26T04:24:29;53.73;;;18.13;;
25758;SDS011;13604;52.496;13.456;2023-01-26T04:26:55;43.30;;;18.10;;
25758;SDS011;13604;52.496;13.456;2023-01-26T04:29:20;45.33;;;17.73;;
25758;SDS011;13604;52.496;13.456;2023-01-26T04:31:45;52.35;;;18.38;;
25758;SDS011;13604;52.496;13.456;2023-01-26T04:34:12;46.40;;;17.13;;
25758;SDS011;13604;52.496;13.456;2023-01-26T04:36:37;43.15;;;17.63;;
25758;SDS011;13604;52.496;13.456;2023-01-26T04:39:03;48.50;;;18.25;;
25758;SDS011;13604;52.496;13.456;2023-01-26T04:41:29;48.13;;;17.38;;
25758;SDS011;13604;52.496;13.456;2023-01-26T04:43:54;49.60;;;18.08;;
25758;SDS011;13604;52.496;13.456;2023-01-26T04:46:19;56.90;;;19.70;;
25758;SDS011;13604;52.496;13.456;2023-01-26T04:48:45;47.50;;;16.60;;
25758;SDS011;13604;52.496;13.456;2023-01-26T04:51:11;51.73;;;17.47;;
25758;SDS011;13604;52.496;13.456;2023-01-26T04:53:36;49.42;;;17.38;;
25758;SDS011;13604;52.496;13.456;2023-01-26T04:56:02;44.53;;;17.00;;
25758;SDS011;13604;52.496;13.456;2023-01-26T04:58:27;43.92;;;17.38;;
25758;SDS011;13604;52.496;13.456;2023-01-26T05:00:53;47.43;;;17.80;;
25758;SDS011;13604;52.496;13.456;2023-01-26T05:03:18;42.67;;;18.13;;
25758;SDS011;13604;52.496;13.456;2023-01-26T05:05:44;47.73;;;18.13;;
25758;SDS011;13604;52.496;13.456;2023-01-26T05:08:09;42.28;;;16.88;;
25758;SDS011;13604;52.496;13.456;2023-01-26T05:10:34;44.67;;;16.77;;
25758;SDS011;13604;52.496;13.456;2023-01-26T05:12:59;44.27;;;17.37;;
25758;SDS011;13604;52.496;13.456;2023-01-26T05:15:24;47.30;;;17.50;;
25758;SDS011;13604;52.496;13.456;2023-01-26T05:17:50;47.47;;;17.23;;
25758;SDS011;13604;52.496;13.456;2023-01-26T05:20:15;39.20;;;14.73;;
25758;SDS011;13604;52.496;13.456;2023-01-26T05:22:40;43.20;;;15.43;;
25758;SDS011;13604;52.496;13.456;2023-01-26T05:25:05;43.53;;;15.47;;
25758;SDS011;13604;52.496;13.456;2023-01-26T05:27:31;37.38;;;14.43;;
25758;SDS011;13604;52.496;13.456;2023-01-26T05:29:56;38.43;;;15.47;;
25758;SDS011;13604;52.496;13.456;2023-01-26T05:32:24;36.67;;;14.38;;
25758;SDS011;13604;52.496;13.456;2023-01-26T05:34:50;36.03;;;14.70;;
25758;SDS011;13604;52.496;13.456;2023-01-26T05:37:16;39.80;;;15.35;;
25758;SDS011;13604;52.496;13.456;2023-01-26T05:39:41;38.60;;;15.50;;
25758;SDS011;13604;52.496;13.456;2023-01-26T05:42:06;38.53;;;14.97;;
25758;SDS011;13604;52.496;13.456;2023-01-26T05:44:31;39.23;;;15.03;;
25758;SDS011;13604;52.496;13.456;2023-01-26T05:46:56;32.43;;;13.40;;
25758;SDS011;13604;52.496;13.456;2023-01-26T05:49:21;36.63;;;13.83;;
25758;SDS011;13604;52.496;13.456;2023-01-26T05:51:47;35.70;;;13.73;;
25758;SDS011;13604;52.496;13.456;2023-01-26T05:54:12;34.00;;;13.70;;
25758;SDS011;13604;52.496;13.456;2023-01-26T05:56:37;33.57;;;12.67;;
25758;SDS011;13604;52.496;13.456;2023-01-26T05:59:02;30.27;;;13.03;;
25758;SDS011;13604;52.496;13.456;2023-01-26T06:01:27;29.00;;;11.88;;
25758;SDS011;13604;52.496;13.456;2023-01-26T06:03:53;32.17;;;12.87;;
25758;SDS011;13604;52.496;13.456;2023-01-26T06:06:18;29.70;;;11.20;;
25758;SDS011;13604;52.496;13.456;2023-01-26T06:08:43;25.63;;;10.53;;
25758;SDS011;13604;52.496;13.456;2023-01-26T06:11:08;28.63;;;11.77;;
25758;SDS011;13604;52.496;13.456;2023-01-26T06:13:34;30.93;;;12.43;;
25758;SDS011;13604;52.496;13.456;2023-01-26T06:15:59;28.60;;;11.90;;
25758;SDS011;13604;52.496;13.456;2023-01-26T06:18:25;34.38;;;14.13;;
25758;SDS011;13604;52.496;13.456;2023-01-26T06:20:50;37.17;;;13.87;;
25758;SDS011;13604;52.496;13.456;2023-01-26T06:23:15;32.63;;;13.73;;
25758;SDS011;13604;52.496;13.456;2023-01-26T06:25:40;38.00;;;14.97;;
25758;SDS011;13604;52.496;13.456;2023-01-26T06:28:06;39.20;;;13.83;;
25758;SDS011;13604;52.496;13.456;2023-01-26T06:30:31;40.67;;;13.70;;
25758;SDS011;13604;52.496;13.456;2023-01-26T06:32:58;32.70;;;13.23;;
25758;SDS011;13604;52.496;13.456;2023-01-26T06:35:23;37.00;;;13.02;;
25758;SDS011;13604;52.496;13.456;2023-01-26T06:37:49;32.63;;;13.77;;
25758;SDS011;13604;52.496;13.456;2023-01-26T06:40:14;37.33;;;13.90;;
25758;SDS011;13604;52.496;13.456;2023-01-26T06:42:45;37.80;;;14.75;;
25758;SDS011;13604;52.496;13.456;2023-01-26T06:45:10;44.50;;;14.23;;
25758;SDS011;13604;52.496;13.456;2023-01-26T06:47:35;38.10;;;14.00;;
25758;SDS011;13604;52.496;13.456;2023-01-26T06:50:00;40.40;;;13.47;;
25758;SDS011;13604;52.496;13.456;2023-01-26T06:52:29;34.77;;;13.57;;
25758;SDS011;13604;52.496;13.456;2023-01-26T06:54:54;37.65;;;13.13;;
25758;SDS011;13604;52.496;13.456;2023-01-26T06:57:21;38.88;;;12.95;;
25758;SDS011;13604;52.496;13.456;2023-01-26T06:59:46;42.35;;;13.82;;
25758;SDS011;13604;52.496;13.456;2023-01-26T07:02:18;32.63;;;12.87;;
25758;SDS011;13604;52.496;13.456;2023-01-26T07:04:44;34.50;;;12.73;;
25758;SDS011;13604;52.496;13.456;2023-01-26T07:07:13;32.90;;;13.05;;
25758;SDS011;13604;52.496;13.456;2023-01-26T07:09:38;36.97;;;13.52;;
25758;SDS011;13604;52.496;13.456;2023-01-26T07:12:03;33.43;;;13.10;;
25758;SDS011;13604;52.496;13.456;2023-01-26T07:14:29;35.50;;;13.02;;
25758;SDS011;13604;52.496;13.456;2023-01-26T07:16:55;31.35;;;12.60;;
25758;SDS011;13604;52.496;13.456;2023-01-26T07:19:20;36.13;;;13.07;;
25758;SDS011;13604;52.496;13.456;2023-01-26T07:21:45;41.03;;;14.70;;
25758;SDS011;13604;52.496;13.456;2023-01-26T07:24:10;39.20;;;15.23;;
25758;SDS011;13604;52.496;13.456;2023-01-26T07:26:35;38.47;;;13.87;;
25758;SDS011;13604;52.496;13.456;2023-01-26T07:29:01;38.33;;;13.13;;
25758;SDS011;13604;52.496;13.456;2023-01-26T07:31:26;38.20;;;13.00;;
25758;SDS011;13604;52.496;13.456;2023-01-26T07:33:51;33.47;;;13.10;;
25758;SDS011;13604;52.496;13.456;2023-01-26T07:36:16;46.10;;;13.57;;
25758;SDS011;13604;52.496;13.456;2023-01-26T07:38:41;40.23;;;14.47;;
25758;SDS011;13604;52.496;13.456;2023-01-26T07:41:08;45.20;;;15.07;;
25758;SDS011;13604;52.496;13.456;2023-01-26T07:43:34;39.92;;;14.10;;
25758;SDS011;13604;52.496;13.456;2023-01-26T07:45:59;51.60;;;17.85;;
25758;SDS011;13604;52.496;13.456;2023-01-26T07:48:24;44.43;;;16.20;;
25758;SDS011;13604;52.496;13.456;2023-01-26T07:50:49;51.83;;;17.60;;
25758;SDS011;13604;52.496;13.456;2023-01-26T07:53:15;44.67;;;15.57;;
25758;SDS011;13604;52.496;13.456;2023-01-26T07:55:43;46.58;;;16.15;;
25758;SDS011;13604;52.496;13.456;2023-01-26T07:58:08;41.33;;;15.70;;
25758;SDS011;13604;52.496;13.456;2023-01-26T08:00:33;49.70;;;16.80;;
25758;SDS011;13604;52.496;13.456;2023-01-26T08:02:59;69.23;;;23.50;;
25758;SDS011;13604;52.496;13.456;2023-01-26T08:05:24;60.40;;;19.00;;
25758;SDS011;13604;52.496;13.456;2023-01-26T08:07:49;47.53;;;16.07;;
25758;SDS011;13604;52.496;13.456;2023-01-26T08:10:14;43.43;;;17.60;;
25758;SDS011;13604;52.496;13.456;2023-01-26T08:12:39;67.20;;;22.45;;
25758;SDS011;13604;52.496;13.456;2023-01-26T08:15:05;60.47;;;23.03;;
25758;SDS011;13604;52.496;13.456;2023-01-26T08:17:30;56.70;;;22.20;;
25758;SDS011;13604;52.496;13.456;2023-01-26T08:19:57;51.15;;;22.17;;
25758;SDS011;13604;52.496;13.456;2023-01-26T08:22:23;53.17;;;19.45;;
25758;SDS011;13604;52.496;13.456;2023-01-26T08:24:48;46.93;;;18.80;;
25758;SDS011;13604;52.496;13.456;2023-01-26T08:27:13;51.07;;;20.40;;
25758;SDS011;13604;52.496;13.456;2023-01-26T08:29:40;42.67;;;18.08;;
25758;SDS011;13604;52.496;13.456;2023-01-26T08:32:05;47.07;;;18.17;;
25758;SDS011;13604;52.496;13.456;2023-01-26T08:34:32;40.00;;;16.55;;
25758;SDS011;13604;52.496;13.456;2023-01-26T08:36:57;37.63;;;14.33;;
25758;SDS011;13604;52.496;13.456;2023-01-26T08:39:22;36.15;;;15.65;;
25758;SDS011;13604;52.496;13.456;2023-01-26T08:41:47;36.83;;;14.70;;
25758;SDS011;13604;52.496;13.456;2023-01-26T08:44:12;40.37;;;16.17;;
25758;SDS011;13604;52.496;13.456;2023-01-26T08:46:38;39.87;;;15.93;;
25758;SDS011;13604;52.496;13.456;2023-01-26T08:49:03;37.67;;;15.53;;
25758;SDS011;13604;52.496;13.456;2023-01-26T08:51:28;30.43;;;13.70;;
25758;SDS011;13604;52.496;13.456;2023-01-26T08:53:53;37.67;;;15.80;;
25758;SDS011;13604;52.496;13.456;2023-01-26T08:56:18;39.80;;;18.45;;
25758;SDS011;13604;52.496;13.456;2023-01-26T08:58:44;36.13;;;15.48;;
25758;SDS011;13604;52.496;13.456;2023-01-26T09:01:10;34.00;;;14.18;;
25758;SDS011;13604;52.496;13.456;2023-01-26T09:03:36;32.55;;;14.15;;
25758;SDS011;13604;52.496;13.456;2023-01-26T09:06:02;36.70;;;13.40;;
25758;SDS011;13604;52.496;13.456;2023-01-26T09:08:28;39.03;;;14.88;;
25758;SDS011;13604;52.496;13.456;2023-01-26T09:10:53;46.33;;;19.33;;
25758;SDS011;13604;52.496;13.456;2023-01-26T09:13:18;41.93;;;17.00;;
25758;SDS011;13604;52.496;13.456;2023-01-26T09:15:43;41.17;;;15.90;;
25758;SDS011;13604;52.496;13.456;2023-01-26T09:18:09;49.13;;;18.67;;
25758;SDS011;13604;52.496;13.456;2023-01-26T09:20:36;48.15;;;20.92;;
25758;SDS011;13604;52.496;13.456;2023-01-26T09:23:01;43.10;;;19.25;;
25758;SDS011;13604;52.496;13.456;2023-01-26T09:25:26;38.53;;;16.40;;
25758;SDS011;13604;52.496;13.456;2023-01-26T09:27:51;39.57;;;18.10;;
25758;SDS011;13604;52.496;13.456;2023-01-26T09:30:16;45.13;;;20.17;;
25758;SDS011;13604;52.496;13.456;2023-01-26T09:32:42;36.30;;;15.40;;
25758;SDS011;13604;52.496;13.456;2023-01-26T09:35:07;34.27;;;16.13;;
25758;SDS011;13604;52.496;13.456;2023-01-26T09:37:35;30.35;;;14.20;;
25758;SDS011;13604;52.496;13.456;2023-01-26T09:40:00;36.00;;;15.13;;
25758;SDS011;13604;52.496;13.456;2023-01-26T09:42:42;30.97;;;14.33;;
25758;SDS011;13604;52.496;13.456;2023-01-26T09:47:45;37.67;;;16.73;;
25758;SDS011;13604;52.496;13.456;2023-01-26T09:50:15;31.75;;;14.02;;
25758;SDS011;13604;52.496;13.456;2023-01-26T09:52:46;31.40;;;15.82;;
25758;SDS011;13604;52.496;13.456;2023-01-26T09:55:16;32.28;;;15.55;;
25758;SDS011;13604;52.496;13.456;2023-01-26T10:00:09;35.17;;;15.98;;
25758;SDS011;13604;52.496;13.456;2023-01-26T10:02:49;33.47;;;16.23;;
25758;SDS011;13604;52.496;13.456;2023-01-26T10:07:45;30.00;;;16.35;;
25758;SDS011;13604;52.496;13.456;2023-01-26T10:10:14;28.27;;;14.07;;
25758;SDS011;13604;52.496;13.456;2023-01-26T10:12:39;35.28;;;17.65;;
25758;SDS011;13604;52.496;13.456;2023-01-26T10:17:45;32.50;;;15.80;;
25758;SDS011;13604;52.496;13.456;2023-01-26T10:22:41;29.85;;;14.93;;
25758;SDS011;13604;52.496;13.456;2023-01-26T10:25:15;29.48;;;14.77;;
25758;SDS011;13604;52.496;13.456;2023-01-26T10:27:40;29.55;;;15.20;;
25758;SDS011;13604;52.496;13.456;2023-01-26T10:30:10;28.70;;;16.00;;
25758;SDS011;13604;52.496;13.456;2023-01-26T10:32:36;31.23;;;17.08;;
25758;SDS011;13604;52.496;13.456;2023-01-26T10:35:01;38.00;;;16.63;;
25758;SDS011;13604;52.496;13.456;2023-01-26T10:37:27;32.57;;;15.60;;
25758;SDS011;13604;52.496;13.456;2023-01-26T10:42:21;31.35;;;14.40;;
25758;SDS011;13604;52.496;13.456;2023-01-26T10:44:46;26.05;;;11.75;;
25758;SDS011;13604;52.496;13.456;2023-01-26T10:47:15;29.45;;;14.05;;
25758;SDS011;13604;52.496;13.456;2023-01-26T10:49:40;29.88;;;14.77;;
25758;SDS011;13604;52.496;13.456;2023-01-26T10:54:41;30.27;;;14.68;;
25758;SDS011;13604;52.496;13.456;2023-01-26T10:57:23;28.80;;;13.70;;
25758;SDS011;13604;52.496;13.456;2023-01-26T10:59:52;31.33;;;14.43;;
25758;SDS011;13604;52.496;13.456;2023-01-26T11:02:19;28.35;;;12.55;;
25758;SDS011;13604;52.496;13.456;2023-01-26T11:05:30;30.90;;;13.27;;
25758;SDS011;13604;52.496;13.456;2023-01-26T11:07:34;28.95;;;13.18;;
25758;SDS011;13604;52.496;13.456;2023-01-26T11:12:43;26.70;;;12.88;;
25758;SDS011;13604;52.496;13.456;2023-01-26T11:15:19;28.90;;;13.90;;
25758;SDS011;13604;52.496;13.456;2023-01-26T11:17:47;27.95;;;12.85;;
25758;SDS011;13604;52.496;13.456;2023-01-26T11:23:00;37.72;;;12.95;;
25758;SDS011;13604;52.496;13.456;2023-01-26T11:25:38;27.05;;;11.85;;
25758;SDS011;13604;52.496;13.456;2023-01-26T11:28:29;24.73;;;12.70;;
25758;SDS011;13604;52.496;13.456;2023-01-26T11:31:00;25.33;;;12.85;;
25758;SDS011;13604;52.496;13.456;2023-01-26T11:33:30;35.83;;;14.68;;
25758;SDS011;13604;52.496;13.456;2023-01-26T11:36:17;26.45;;;12.65;;
25758;SDS011;13604;52.496;13.456;2023-01-26T11:38:46;45.53;;;20.30;;
25758;SDS011;13604;52.496;13.456;2023-01-26T11:41:22;36.03;;;17.05;;
25758;SDS011;13604;52.496;13.456;2023-01-26T11:44:05;32.03;;;14.73;;
25758;SDS011;13604;52.496;13.456;2023-01-26T11:46:37;30.83;;;14.93;;
25758;SDS011;13604;52.496;13.456;2023-01-26T11:49:21;28.73;;;14.07;;
25758;SDS011;13604;52.496;13.456;2023-01-26T11:57:20;38.22;;;14.55;;
25758;SDS011;13604;52.496;13.456;2023-01-26T11:59:56;31.75;;;14.63;;
25758;SDS011;13604;52.496;13.456;2023-01-26T12:02:33;31.63;;;14.82;;
25758;SDS011;13604;52.496;13.456;2023-01-26T12:05:18;33.25;;;14.90;;
25758;SDS011;13604;52.496;13.456;2023-01-26T12:07:50;33.80;;;15.57;;
25758;SDS011;13604;52.496;13.456;2023-01-26T12:10:26;39.25;;;15.93;;
25758;SDS011;13604;52.496;13.456;2023-01-26T12:12:54;33.35;;;15.90;;
25758;SDS011;13604;52.496;13.456;2023-01-26T12:15:24;34.75;;;15.85;;
25758;SDS011;13604;52.496;13.456;2023-01-26T12:22:49;32.65;;;16.10;;
25758;SDS011;13604;52.496;13.456;2023-01-26T12:25:27;33.08;;;16.10;;
25758;SDS011;13604;52.496;13.456;2023-01-26T12:27:55;36.15;;;16.30;;
25758;SDS011;13604;52.496;13.456;2023-01-26T12:33:07;29.00;;;14.60;;
25758;SDS011;13604;52.496;13.456;2023-01-26T12:38:01;32.63;;;14.33;;
25758;SDS011;13604;52.496;13.456;2023-01-26T12:43:34;35.75;;;16.35;;
25758;SDS011;13604;52.496;13.456;2023-01-26T12:46:00;33.55;;;15.90;;
25758;SDS011;13604;52.496;13.456;2023-01-26T12:48:31;35.25;;;17.52;;
25758;SDS011;13604;52.496;13.456;2023-01-26T12:51:02;28.97;;;13.27;;
25758;SDS011;13604;52.496;13.456;2023-01-26T12:53:30;36.55;;;19.85;;
25758;SDS011;13604;52.496;13.456;2023-01-26T12:58:25;34.05;;;17.23;;
25758;SDS011;13604;52.496;13.456;2023-01-26T13:00:54;40.65;;;18.35;;
25758;SDS011;13604;52.496;13.456;2023-01-26T13:03:22;41.25;;;19.45;;
25758;SDS011;13604;52.496;13.456;2023-01-26T13:05:54;33.58;;;14.27;;
25758;SDS011;13604;52.496;13.456;2023-01-26T13:10:53;30.38;;;13.73;;
25758;SDS011;13604;52.496;13.456;2023-01-26T13:16:08;30.48;;;13.70;;
25758;SDS011;13604;52.496;13.456;2023-01-26T13:18:51;29.20;;;13.55;;
25758;SDS011;13604;52.496;13.456;2023-01-26T13:26:45;27.17;;;13.32;;
25758;SDS011;13604;52.496;13.456;2023-01-26T13:31:48;26.45;;;13.93;;
25758;SDS011;13604;52.496;13.456;2023-01-26T13:34:13;24.87;;;12.37;;
25758;SDS011;13604;52.496;13.456;2023-01-26T13:36:40;29.92;;;12.90;;
25758;SDS011;13604;52.496;13.456;2023-01-26T13:39:24;23.13;;;11.23;;
25758;SDS011;13604;52.496;13.456;2023-01-26T13:41:51;24.67;;;12.70;;
25758;SDS011;13604;52.496;13.456;2023-01-26T13:44:18;26.80;;;12.90;;
25758;SDS011;13604;52.496;13.456;2023-01-26T13:46:47;29.15;;;12.45;;
25758;SDS011;13604;52.496;13.456;2023-01-26T13:49:22;24.27;;;11.20;;
25758;SDS011;13604;52.496;13.456;2023-01-26T13:51:47;28.08;;;12.30;;
25758;SDS011;13604;52.496;13.456;2023-01-26T13:54:13;20.27;;;10.40;;
25758;SDS011;13604;52.496;13.456;2023-01-26T13:56:39;19.75;;;9.75;;
25758;SDS011;13604;52.496;13.456;2023-01-26T14:01:46;22.15;;;10.73;;
25758;SDS011;13604;52.496;13.456;2023-01-26T14:04:16;25.52;;;11.30;;
25758;SDS011;13604;52.496;13.456;2023-01-26T14:06:42;19.15;;;10.55;;
25758;SDS011;13604;52.496;13.456;2023-01-26T14:09:10;19.45;;;9.60;;
25758;SDS011;13604;52.496;13.456;2023-01-26T14:11:36;25.98;;;11.98;;
25758;SDS011;13604;52.496;13.456;2023-01-26T14:14:02;20.13;;;10.13;;
25758;SDS011;13604;52.496;13.456;2023-01-26T14:16:28;21.50;;;10.93;;
25758;SDS011;13604;52.496;13.456;2023-01-26T14:19:13;19.13;;;10.15;;
25758;SDS011;13604;52.496;13.456;2023-01-26T14:22:13;20.98;;;10.02;;
25758;SDS011;13604;52.496;13.456;2023-01-26T14:24:34;19.75;;;9.63;;
25758;SDS011;13604;52.496;13.456;2023-01-26T14:26:59;33.03;;;12.30;;
25758;SDS011;13604;52.496;13.456;2023-01-26T14:29:26;46.70;;;15.40;;
25758;SDS011;13604;52.496;13.456;2023-01-26T14:31:52;54.45;;;14.55;;
25758;SDS011;13604;52.496;13.456;2023-01-26T14:34:22;46.70;;;14.70;;
25758;SDS011;13604;52.496;13.456;2023-01-26T14:36:48;24.80;;;11.48;;
25758;SDS011;13604;52.496;13.456;2023-01-26T14:39:28;24.67;;;11.82;;
25758;SDS011;13604;52.496;13.456;2023-01-26T14:41:53;28.37;;;12.40;;
25758;SDS011;13604;52.496;13.456;2023-01-26T14:44:18;31.38;;;14.68;;
25758;SDS011;13604;52.496;13.456;2023-01-26T14:46:51;26.23;;;13.53;;
25758;SDS011;13604;52.496;13.456;2023-01-26T14:49:19;25.20;;;12.65;;
25758;SDS011;13604;52.496;13.456;2023-01-26T14:51:46;26.08;;;12.73;;
25758;SDS011;13604;52.496;13.456;2023-01-26T14:56:41;30.77;;;15.88;;
25758;SDS011;13604;52.496;13.456;2023-01-26T14:59:13;27.08;;;13.98;;
25758;SDS011;13604;52.496;13.456;2023-01-26T15:01:42;26.48;;;13.57;;
25758;SDS011;13604;52.496;13.456;2023-01-26T15:04:24;28.07;;;14.13;;
25758;SDS011;13604;52.496;13.456;2023-01-26T15:06:52;28.60;;;13.43;;
25758;SDS011;13604;52.496;13.456;2023-01-26T15:09:19;29.42;;;14.45;;
25758;SDS011;13604;52.496;13.456;2023-01-26T15:11:50;28.98;;;14.60;;
25758;SDS011;13604;52.496;13.456;2023-01-26T15:14:53;28.85;;;14.48;;
25758;SDS011;13604;52.496;13.456;2023-01-26T15:17:34;33.35;;;14.88;;
25758;SDS011;13604;52.496;13.456;2023-01-26T15:20:00;26.88;;;13.05;;
25758;SDS011;13604;52.496;13.456;2023-01-26T15:22:25;29.43;;;13.60;;